createdAt,value
2023-05-02T00:01:18.935Z,80.08
2023-05-02T00:03:45.682Z,79.04
2023-05-02T00:06:12.777Z,79.10
2023-05-02T00:08:39.551Z,79.85
2023-05-02T00:11:06.244Z,80.08
2023-05-02T00:13:32.934Z,79.58
2023-05-02T00:15:59.573Z,80.31
2023-05-02T00:18:26.234Z,79.76
2023-05-02T00:20:52.885Z,79.70
2023-05-02T00:23:19.639Z,78.81
2023-05-02T00:25:48.660Z,79.66
2023-05-02T00:28:15.172Z,79.70
2023-05-02T00:30:45.436Z,78.78
2023-05-02T00:33:13.434Z,79.46
2023-05-02T00:35:41.701Z,78.83
2023-05-02T00:38:08.314Z,79.25
2023-05-02T00:40:48.867Z,79.44
2023-05-02T00:43:15.945Z,79.20
2023-05-02T00:45:44.241Z,78.59
2023-05-02T00:48:11.378Z,78.80
2023-05-02T00:50:40.583Z,79.35
2023-05-02T00:53:08.322Z,79.61
2023-05-02T00:55:35.007Z,78.81
2023-05-02T00:58:04.737Z,80.16
2023-05-02T01:00:43.432Z,79.87
2023-05-02T01:03:20.468Z,80.01
2023-05-02T01:06:11.627Z,80.74
2023-05-02T01:08:49.271Z,80.91
2023-05-02T01:11:46.600Z,81.32
2023-05-02T01:14:15.123Z,80.74
2023-05-02T01:16:45.837Z,80.99
2023-05-02T01:19:36.468Z,80.64
2023-05-02T01:22:06.612Z,81.60
2023-05-02T01:24:40.431Z,81.80
2023-05-02T01:27:14.304Z,81.16
2023-05-02T01:29:43.242Z,81.10
2023-05-02T01:32:12.754Z,80.31
2023-05-02T01:34:41.774Z,80.05
2023-05-02T01:37:11.145Z,79.19
2023-05-02T01:39:40.094Z,79.44
2023-05-02T01:42:07.052Z,78.86
2023-05-02T01:44:36.066Z,79.24
2023-05-02T01:47:05.592Z,79.30
2023-05-02T01:49:34.906Z,79.32
2023-05-02T01:52:08.364Z,78.85
2023-05-02T01:54:37.386Z,79.02
2023-05-02T01:57:07.043Z,79.34
2023-05-02T01:59:35.497Z,78.70
2023-05-02T02:02:02.931Z,78.55
2023-05-02T02:04:32.854Z,79.39
2023-05-02T02:07:03.650Z,79.27
2023-05-02T02:09:31.439Z,79.00
2023-05-02T02:12:06.223Z,78.54
2023-05-02T02:14:38.583Z,78.07
2023-05-02T02:17:30.118Z,78.33
2023-05-02T02:20:03.549Z,78.46
2023-05-02T02:22:36.978Z,78.06
2023-05-02T02:25:06.839Z,78.19
2023-05-02T02:27:33.764Z,77.99
2023-05-02T02:30:03.694Z,77.76
2023-05-02T02:32:30.650Z,77.06
2023-05-02T02:34:59.066Z,77.28
2023-05-02T02:37:32.724Z,77.14
2023-05-02T02:40:09.497Z,76.49
2023-05-02T02:42:48.576Z,76.71
2023-05-02T02:45:36.751Z,76.40
2023-05-02T02:48:41.838Z,75.76
2023-05-02T02:51:15.006Z,75.83
2023-05-02T02:54:23.068Z,75.51
2023-05-02T02:57:18.590Z,75.73
2023-05-02T03:00:28.408Z,75.48
2023-05-02T03:02:56.943Z,75.87
2023-05-02T03:05:24.412Z,75.81
2023-05-02T03:07:51.541Z,76.28
2023-05-02T03:10:18.148Z,75.38
2023-05-02T03:12:44.878Z,75.41
2023-05-02T03:15:24.322Z,75.36
2023-05-02T03:17:51.063Z,75.74
2023-05-02T03:20:17.975Z,75.45
2023-05-02T03:22:44.586Z,75.58
2023-05-02T03:25:11.230Z,75.13
2023-05-02T03:27:38.172Z,75.17
2023-05-02T03:30:08.522Z,75.14
2023-05-02T03:32:35.258Z,74.97
2023-05-02T03:35:01.962Z,75.25
2023-05-02T03:37:28.642Z,74.58
2023-05-02T03:39:55.675Z,75.21
2023-05-02T03:42:22.260Z,75.11
2023-05-02T03:44:52.771Z,75.48
2023-05-02T03:47:19.786Z,75.07
2023-05-02T03:49:46.836Z,75.32
2023-05-02T03:52:13.625Z,74.83
2023-05-02T03:54:43.878Z,75.01
2023-05-02T03:57:10.743Z,75.51
2023-05-02T03:59:41.646Z,75.45
2023-05-02T04:02:08.793Z,75.32
2023-05-02T04:04:35.705Z,75.24
2023-05-02T04:07:07.964Z,75.18
2023-05-02T04:09:34.613Z,75.28
2023-05-02T04:12:01.611Z,75.04
2023-05-02T04:14:28.354Z,75.39
2023-05-02T04:16:55.190Z,75.51
2023-05-02T04:19:22.284Z,74.67
2023-05-02T04:21:48.934Z,74.24
2023-05-02T04:24:16.086Z,74.04
2023-05-02T04:26:45.826Z,73.96
2023-05-02T04:29:13.533Z,73.37
2023-05-02T04:31:40.448Z,73.39
2023-05-02T04:34:07.562Z,73.39
2023-05-02T04:36:34.868Z,73.37
2023-05-02T04:39:01.385Z,73.19
2023-05-02T04:41:27.987Z,73.38
2023-05-02T04:43:57.442Z,73.45
2023-05-02T04:46:24.116Z,74.39
2023-05-02T04:48:51.120Z,73.67
2023-05-02T04:51:17.833Z,73.67
2023-05-02T04:53:44.494Z,73.40
2023-05-02T04:56:11.608Z,73.30
2023-05-02T04:58:38.378Z,73.41
2023-05-02T05:01:04.992Z,72.80
2023-05-02T05:03:33.367Z,72.42
2023-05-02T05:06:00.172Z,73.28
2023-05-02T05:08:27.549Z,72.83
2023-05-02T05:10:54.257Z,72.50
2023-05-02T05:13:21.080Z,72.64
2023-05-02T05:15:48.102Z,72.16
2023-05-02T05:18:15.357Z,71.64
2023-05-02T05:20:42.181Z,72.17
2023-05-02T05:23:08.895Z,71.47
2023-05-02T05:25:35.614Z,71.07
2023-05-02T05:28:02.214Z,71.02
2023-05-02T05:30:30.840Z,71.38
2023-05-02T05:32:58.816Z,71.12
2023-05-02T05:35:26.448Z,70.71
2023-05-02T05:37:53.796Z,71.66
2023-05-02T05:40:21.378Z,71.43
2023-05-02T05:42:48.190Z,71.70
2023-05-02T05:45:17.072Z,70.90
2023-05-02T05:47:43.737Z,71.02
2023-05-02T05:50:11.259Z,70.88
2023-05-02T05:52:38.076Z,71.18
2023-05-02T05:55:05.254Z,70.72
2023-05-02T05:57:32.156Z,71.08
2023-05-02T05:59:58.964Z,70.99
2023-05-02T06:02:26.372Z,71.11
2023-05-02T06:04:52.992Z,71.14
2023-05-02T06:07:19.484Z,70.93
2023-05-02T06:09:45.901Z,71.14
2023-05-02T06:12:12.370Z,70.71
2023-05-02T06:14:38.827Z,70.53
2023-05-02T06:17:05.327Z,70.86
2023-05-02T06:19:31.841Z,70.80
2023-05-02T06:21:58.557Z,70.51
2023-05-02T06:24:25.196Z,69.42
2023-05-02T06:26:51.777Z,69.40
2023-05-02T06:29:18.180Z,68.74
2023-05-02T06:31:44.926Z,68.33
2023-05-02T06:34:11.562Z,67.89
2023-05-02T06:36:38.128Z,67.40
2023-05-02T06:39:04.636Z,67.25
2023-05-02T06:41:31.601Z,66.68
2023-05-02T06:43:58.127Z,66.36
2023-05-02T06:46:28.846Z,66.19
2023-05-02T06:48:55.273Z,65.13
2023-05-02T06:51:23.274Z,65.77
2023-05-02T06:53:49.932Z,66.05
2023-05-02T06:56:16.356Z,66.08
2023-05-02T06:58:42.822Z,66.59
2023-05-02T07:01:09.500Z,66.41
2023-05-02T07:03:36.005Z,65.95
2023-05-02T07:06:04.207Z,66.64
2023-05-02T07:08:31.087Z,66.82
2023-05-02T07:10:57.571Z,66.96
2023-05-02T07:13:24.009Z,66.30
2023-05-02T07:15:50.422Z,66.67
2023-05-02T07:18:16.861Z,67.08
2023-05-02T07:20:46.510Z,66.80
2023-05-02T07:23:13.004Z,67.17
2023-05-02T07:25:42.714Z,67.26
2023-05-02T07:28:12.791Z,65.55
2023-05-02T07:30:39.288Z,65.25
2023-05-02T07:33:05.982Z,65.36
2023-05-02T07:35:32.471Z,65.30
2023-05-02T07:37:59.197Z,66.31
2023-05-02T07:40:25.758Z,65.89
2023-05-02T07:42:52.312Z,65.44
2023-05-02T07:45:18.898Z,65.14
2023-05-02T07:47:46.987Z,64.00
2023-05-02T07:50:13.521Z,64.88
2023-05-02T07:52:40.045Z,64.31
2023-05-02T07:55:07.481Z,63.75
2023-05-02T07:57:34.207Z,63.35
2023-05-02T08:00:00.929Z,63.68
2023-05-02T08:02:28.877Z,62.32
2023-05-02T08:04:55.596Z,62.39
2023-05-02T08:07:22.147Z,62.19
2023-05-02T08:09:48.590Z,61.76
2023-05-02T08:12:14.993Z,60.96
2023-05-02T08:14:41.510Z,60.51
2023-05-02T08:17:07.979Z,61.06
2023-05-02T08:19:34.722Z,61.40
2023-05-02T08:22:02.488Z,61.94
2023-05-02T08:24:29.428Z,63.34
2023-05-02T08:26:55.946Z,61.75
2023-05-02T08:29:23.757Z,61.93
2023-05-02T08:31:50.335Z,60.97
2023-05-02T08:34:18.272Z,60.33
2023-05-02T08:36:44.915Z,59.68
2023-05-02T08:39:11.780Z,59.56
2023-05-02T08:41:38.625Z,59.89
2023-05-02T08:44:07.542Z,57.58
2023-05-02T08:46:36.390Z,57.75
2023-05-02T08:49:03.539Z,57.68
2023-05-02T08:51:35.154Z,55.89
2023-05-02T08:54:07.365Z,56.18
2023-05-02T08:56:34.153Z,56.66
2023-05-02T08:59:00.620Z,56.28
2023-05-02T09:01:31.074Z,55.10
2023-05-02T09:03:59.208Z,55.04
2023-05-02T09:06:27.251Z,55.09
2023-05-02T09:08:53.838Z,53.84
2023-05-02T09:11:21.650Z,53.61
2023-05-02T09:13:51.112Z,51.93
2023-05-02T09:16:20.009Z,51.77
2023-05-02T09:18:48.767Z,50.63
2023-05-02T09:21:21.236Z,48.88
2023-05-02T09:24:01.772Z,49.69
2023-05-02T09:26:33.290Z,50.13
2023-05-02T09:29:02.166Z,49.93
2023-05-02T09:34:13.174Z,48.06
2023-05-02T09:36:42.068Z,48.74
2023-05-02T09:39:11.465Z,46.76
2023-05-02T09:41:42.918Z,48.16
2023-05-02T09:44:18.417Z,46.76
2023-05-02T09:46:46.956Z,47.19
2023-05-02T09:49:18.557Z,46.75
2023-05-02T09:51:48.687Z,45.66
2023-05-02T09:54:38.414Z,45.76
2023-05-02T09:57:07.108Z,44.91
2023-05-02T09:59:33.994Z,45.18
2023-05-02T10:02:04.795Z,44.19
2023-05-02T10:04:33.420Z,42.83
2023-05-02T10:07:02.143Z,43.88
2023-05-02T10:09:32.386Z,43.59
2023-05-02T10:12:05.359Z,42.20
2023-05-02T10:14:41.797Z,42.87
2023-05-02T10:17:14.063Z,44.12
2023-05-02T10:20:05.512Z,43.46
2023-05-02T10:22:37.743Z,42.36
2023-05-02T10:25:05.157Z,43.33
2023-05-02T10:27:33.190Z,42.60
2023-05-02T10:30:10.489Z,42.63
2023-05-02T10:32:38.444Z,44.88
2023-05-02T10:35:06.453Z,42.94
2023-05-02T10:37:37.658Z,43.80
2023-05-02T10:40:06.215Z,41.03
2023-05-02T10:42:40.953Z,41.59
2023-05-02T10:45:33.775Z,42.62
2023-05-02T10:48:21.454Z,43.08
2023-05-02T10:51:04.081Z,43.33
2023-05-02T10:53:39.529Z,41.79
2023-05-02T10:56:13.191Z,41.52
2023-05-02T10:58:40.894Z,40.99
2023-05-02T11:01:29.056Z,40.37
2023-05-02T11:04:00.146Z,40.94
2023-05-02T11:06:33.494Z,43.02
2023-05-02T11:09:18.819Z,43.77
2023-05-02T11:11:45.841Z,43.99
2023-05-02T11:14:38.487Z,41.93
2023-05-02T11:17:04.973Z,41.17
2023-05-02T11:19:37.366Z,40.68
2023-05-02T11:22:24.031Z,41.22
2023-05-02T11:24:51.477Z,42.23
2023-05-02T11:27:30.595Z,43.21
2023-05-02T11:30:11.220Z,40.28
2023-05-02T11:32:44.143Z,41.30
2023-05-02T11:35:23.949Z,42.83
2023-05-02T11:37:54.133Z,41.34
2023-05-02T11:40:20.830Z,39.57
2023-05-02T11:42:47.690Z,38.82
2023-05-02T11:45:14.362Z,39.08
2023-05-02T11:47:42.230Z,40.05
2023-05-02T11:50:16.531Z,40.54
2023-05-02T11:52:44.593Z,40.10
2023-05-02T11:55:14.104Z,39.26
2023-05-02T11:57:41.103Z,37.56
2023-05-02T12:00:08.267Z,40.82
2023-05-02T12:02:42.789Z,41.26
2023-05-02T12:05:11.815Z,40.65
2023-05-02T12:07:47.483Z,40.40
2023-05-02T12:10:14.575Z,40.27
2023-05-02T12:12:43.513Z,40.49
2023-05-02T12:15:11.858Z,39.53
2023-05-02T12:17:53.052Z,41.15
2023-05-02T12:20:19.817Z,40.03
2023-05-02T12:22:47.663Z,42.28
2023-05-02T12:25:14.298Z,41.75
2023-05-02T12:27:40.997Z,41.56
2023-05-02T12:30:28.395Z,40.57
2023-05-02T12:32:59.380Z,42.10
2023-05-02T12:35:26.227Z,38.46
2023-05-02T12:37:54.386Z,39.80
2023-05-02T12:40:21.250Z,39.80
2023-05-02T12:43:07.313Z,40.49
2023-05-02T12:45:37.520Z,37.26
2023-05-02T12:48:20.476Z,36.03
2023-05-02T12:50:47.278Z,34.82
2023-05-02T12:53:52.615Z,37.75
2023-05-02T12:56:20.511Z,35.83
2023-05-02T12:58:48.965Z,36.42
2023-05-02T13:01:18.817Z,35.26
2023-05-02T13:03:51.258Z,37.38
2023-05-02T13:06:18.690Z,34.34
2023-05-02T13:08:45.442Z,37.32
2023-05-02T13:11:13.073Z,35.21
2023-05-02T13:13:39.618Z,36.74
2023-05-02T13:16:06.551Z,33.12
2023-05-02T13:18:33.443Z,32.40
2023-05-02T13:21:00.188Z,33.40
2023-05-02T13:23:26.856Z,34.27
2023-05-02T13:25:53.477Z,36.21
2023-05-02T13:28:20.062Z,35.30
2023-05-02T13:30:48.151Z,34.96
2023-05-02T13:33:17.588Z,35.12
2023-05-02T13:35:44.088Z,34.90
2023-05-02T13:38:10.989Z,33.60
2023-05-02T13:40:37.581Z,32.70
2023-05-02T13:43:04.217Z,33.57
2023-05-02T13:45:31.084Z,31.71
2023-05-02T13:47:58.357Z,31.68
2023-05-02T13:50:25.406Z,30.47
2023-05-02T13:52:52.428Z,30.07
2023-05-02T13:55:20.292Z,30.86
2023-05-02T13:57:47.476Z,32.45
2023-05-02T14:00:14.804Z,30.39
2023-05-02T14:03:10.387Z,30.56
2023-05-02T14:05:41.319Z,29.38
2023-05-02T14:08:08.694Z,30.14
2023-05-02T14:10:37.797Z,31.04
2023-05-02T14:13:05.025Z,31.16
2023-05-02T14:15:31.753Z,32.01
2023-05-02T14:17:58.787Z,32.62
2023-05-02T14:20:25.741Z,33.88
2023-05-02T14:22:53.655Z,34.98
2023-05-02T14:25:20.514Z,35.82
2023-05-02T14:27:47.460Z,32.69
2023-05-02T14:30:14.090Z,31.66
2023-05-02T14:32:40.640Z,31.94
2023-05-02T14:35:07.429Z,32.93
2023-05-02T14:37:33.981Z,31.05
2023-05-02T14:40:01.246Z,31.17
2023-05-02T14:42:33.597Z,31.27
2023-05-02T14:45:02.678Z,33.14
2023-05-02T14:47:32.692Z,29.74
2023-05-02T14:49:59.805Z,32.10
2023-05-02T14:52:27.023Z,30.11
2023-05-02T14:54:53.567Z,29.70
2023-05-02T14:57:20.701Z,29.57
2023-05-02T14:59:47.235Z,29.16
2023-05-02T15:02:14.010Z,31.44
2023-05-02T15:04:40.961Z,30.73
2023-05-02T15:07:07.976Z,29.69
2023-05-02T15:09:34.650Z,31.47
2023-05-02T15:12:02.450Z,31.30
2023-05-02T15:14:29.075Z,29.94
2023-05-02T15:16:55.799Z,30.71
2023-05-02T15:19:25.298Z,29.99
2023-05-02T15:22:14.716Z,28.94
2023-05-02T15:24:41.243Z,28.94
2023-05-02T15:27:09.413Z,27.96
2023-05-02T15:29:36.170Z,27.75
2023-05-02T15:32:04.856Z,29.84
2023-05-02T15:34:31.366Z,32.59
2023-05-02T15:36:59.742Z,34.40
2023-05-02T15:39:27.986Z,36.32
2023-05-02T15:41:58.232Z,37.62
2023-05-02T15:44:26.211Z,36.21
2023-05-02T15:46:55.929Z,38.84
2023-05-02T15:49:24.491Z,39.63
2023-05-02T15:51:57.831Z,38.82
2023-05-02T15:54:24.352Z,40.97
2023-05-02T15:56:50.812Z,40.69
2023-05-02T15:59:17.366Z,40.28
2023-05-02T16:01:44.000Z,41.35
2023-05-02T16:04:13.021Z,42.59
2023-05-02T16:06:42.584Z,43.55
2023-05-02T16:09:10.060Z,42.48
2023-05-02T16:11:37.334Z,43.30
2023-05-02T16:14:04.553Z,42.47
2023-05-02T16:16:32.177Z,44.05
2023-05-02T16:18:58.729Z,43.98
2023-05-02T16:21:25.792Z,44.39
2023-05-02T16:23:52.289Z,44.33
2023-05-02T16:26:20.280Z,44.96
2023-05-02T16:28:46.730Z,44.25
2023-05-02T16:31:14.914Z,44.53
2023-05-02T16:33:42.829Z,44.94
2023-05-02T16:36:10.135Z,44.69
2023-05-02T16:38:36.683Z,45.45
2023-05-02T16:41:05.139Z,45.00
2023-05-02T16:43:31.572Z,44.67
2023-05-02T16:46:06.042Z,44.33
2023-05-02T16:48:36.818Z,44.07
2023-05-02T16:51:04.341Z,44.27
2023-05-02T16:53:31.560Z,44.33
2023-05-02T16:55:59.409Z,46.55
2023-05-02T16:58:30.000Z,45.03
2023-05-02T17:00:56.799Z,45.15
2023-05-02T17:03:23.385Z,45.08
2023-05-02T17:05:49.913Z,46.65
2023-05-02T17:08:16.976Z,45.61
2023-05-02T17:10:48.533Z,45.23
2023-05-02T17:13:14.961Z,45.63
2023-05-02T17:15:41.984Z,46.19
2023-05-02T17:18:08.489Z,46.41
2023-05-02T17:20:36.248Z,46.65
2023-05-02T17:23:02.949Z,46.69
2023-05-02T17:25:30.464Z,46.21
2023-05-02T17:27:58.442Z,45.56
2023-05-02T17:30:25.193Z,46.79
2023-05-02T17:32:51.827Z,47.69
2023-05-02T17:35:18.361Z,47.80
2023-05-02T17:37:44.804Z,47.52
2023-05-02T17:40:12.278Z,48.17
2023-05-02T17:42:39.047Z,48.28
2023-05-02T17:45:06.833Z,48.14
2023-05-02T17:47:33.282Z,48.78
2023-05-02T17:50:02.665Z,48.85
2023-05-02T17:52:29.391Z,50.03
2023-05-02T17:54:55.814Z,49.47
2023-05-02T17:57:22.639Z,50.16
2023-05-02T17:59:50.601Z,49.74
2023-05-02T18:02:18.060Z,49.62
2023-05-02T18:04:45.536Z,50.18
2023-05-02T18:07:12.048Z,50.87
2023-05-02T18:09:38.583Z,50.82
2023-05-02T18:12:06.876Z,50.31
2023-05-02T18:14:33.611Z,50.73
2023-05-02T18:17:02.806Z,51.38
2023-05-02T18:19:29.345Z,51.82
2023-05-02T18:21:56.060Z,52.21
2023-05-02T18:24:22.887Z,52.10
2023-05-02T18:26:50.141Z,52.78
2023-05-02T18:29:16.918Z,52.41
2023-05-02T18:31:46.169Z,52.48
2023-05-02T18:34:12.630Z,52.85
2023-05-02T18:36:39.551Z,53.16
2023-05-02T18:39:06.182Z,53.50
2023-05-02T18:41:32.609Z,53.55
2023-05-02T18:44:00.729Z,53.54
2023-05-02T18:46:27.471Z,54.09
2023-05-02T18:48:57.103Z,54.59
2023-05-02T18:51:24.358Z,55.05
2023-05-02T18:53:51.553Z,55.31
2023-05-02T18:56:18.019Z,55.22
2023-05-02T18:58:44.563Z,55.92
2023-05-02T19:01:20.165Z,56.40
2023-05-02T19:03:46.953Z,56.85
2023-05-02T19:06:14.721Z,57.05
2023-05-02T19:08:42.369Z,57.47
2023-05-02T19:11:09.292Z,57.50
2023-05-02T19:13:35.914Z,57.90
2023-05-02T19:16:02.407Z,58.27
2023-05-02T19:18:28.911Z,58.39
2023-05-02T19:20:55.329Z,58.88
2023-05-02T19:23:21.684Z,58.45
2023-05-02T19:25:48.288Z,59.49
2023-05-02T19:28:16.852Z,59.39
2023-05-02T19:30:44.452Z,59.75
2023-05-02T19:33:11.495Z,59.61
2023-05-02T19:35:38.483Z,60.13
2023-05-02T19:38:04.988Z,60.10
2023-05-02T19:40:31.464Z,59.92
2023-05-02T19:42:58.234Z,60.11
2023-05-02T19:45:24.734Z,60.41
2023-05-02T19:47:51.272Z,60.36
2023-05-02T19:50:17.782Z,60.49
2023-05-02T19:52:45.822Z,60.89
2023-05-02T19:55:12.380Z,60.56
2023-05-02T19:57:40.456Z,61.46
2023-05-02T20:00:07.483Z,60.88
2023-05-02T20:02:34.306Z,61.05
2023-05-02T20:05:01.280Z,61.99
2023-05-02T20:07:27.924Z,61.43
2023-05-02T20:09:55.462Z,61.53
2023-05-02T20:12:21.961Z,61.92
2023-05-02T20:14:48.752Z,61.96
2023-05-02T20:17:15.313Z,62.67
2023-05-02T20:19:41.816Z,62.23
2023-05-02T20:22:08.338Z,62.82
2023-05-02T20:24:38.114Z,62.62
2023-05-02T20:27:07.409Z,63.01
2023-05-02T20:29:33.931Z,63.18
2023-05-02T20:32:00.456Z,63.10
2023-05-02T20:34:26.914Z,63.47
2023-05-02T20:36:53.301Z,63.14
2023-05-02T20:39:22.989Z,64.03
2023-05-02T20:41:50.086Z,63.67
2023-05-02T20:44:22.577Z,63.66
2023-05-02T20:46:49.343Z,64.00
2023-05-02T20:49:16.308Z,63.85
2023-05-02T20:51:42.753Z,63.51
2023-05-02T20:54:09.120Z,63.26
2023-05-02T20:56:35.652Z,62.78
2023-05-02T20:59:02.100Z,62.83
2023-05-02T21:01:29.874Z,63.01
2023-05-02T21:03:57.311Z,62.93
2023-05-02T21:06:24.082Z,64.05
2023-05-02T21:08:51.167Z,63.94
2023-05-02T21:11:17.619Z,64.71
2023-05-02T21:13:44.070Z,64.12
2023-05-02T21:16:18.128Z,64.11
2023-05-02T21:18:45.471Z,64.66
2023-05-02T21:21:11.976Z,64.36
2023-05-02T21:23:38.510Z,64.42
2023-05-02T21:26:05.341Z,64.28
2023-05-02T21:28:31.939Z,65.01
2023-05-02T21:30:58.424Z,65.10
2023-05-02T21:33:24.861Z,64.46
2023-05-02T21:35:57.949Z,65.17
2023-05-02T21:38:25.618Z,65.41
2023-05-02T21:40:52.999Z,65.86
2023-05-02T21:43:19.685Z,65.31
2023-05-02T21:45:47.655Z,65.09
2023-05-02T21:48:15.388Z,65.49
2023-05-02T21:50:43.158Z,65.80
2023-05-02T21:53:13.619Z,66.74
2023-05-02T21:55:41.300Z,67.26
2023-05-02T21:58:12.232Z,67.52
2023-05-02T22:00:40.164Z,68.69
2023-05-02T22:03:08.970Z,68.80
2023-05-02T22:05:36.001Z,68.57
2023-05-02T22:08:03.147Z,68.56
2023-05-02T22:10:30.163Z,68.51
2023-05-02T22:12:56.662Z,68.69
2023-05-02T22:15:23.170Z,67.88
2023-05-02T22:17:50.586Z,68.64
2023-05-02T22:20:17.156Z,68.97
2023-05-02T22:22:43.574Z,68.18
2023-05-02T22:25:10.315Z,68.72
2023-05-02T22:27:39.228Z,68.60
2023-05-02T22:30:08.033Z,68.73
2023-05-02T22:32:34.596Z,68.97
2023-05-02T22:35:04.594Z,69.09
2023-05-02T22:37:31.137Z,69.74
2023-05-02T22:39:57.593Z,69.60
2023-05-02T22:42:24.575Z,69.27
2023-05-02T22:44:54.625Z,69.44
2023-05-02T22:47:25.158Z,69.92
2023-05-02T22:49:52.615Z,69.87
2023-05-02T22:52:20.978Z,69.92
2023-05-02T22:54:48.495Z,69.96
2023-05-02T22:57:15.022Z,69.94
2023-05-02T22:59:44.360Z,69.80
2023-05-02T23:02:13.958Z,69.65
2023-05-02T23:04:41.495Z,70.54
2023-05-02T23:07:08.004Z,70.75
2023-05-02T23:09:34.469Z,71.09
2023-05-02T23:12:02.655Z,71.24
2023-05-02T23:14:29.573Z,71.09
2023-05-02T23:16:56.545Z,71.68
2023-05-02T23:19:23.084Z,71.49
2023-05-02T23:21:49.481Z,71.38
2023-05-02T23:24:16.024Z,71.17
2023-05-02T23:26:42.432Z,71.38
2023-05-02T23:29:08.909Z,71.78
2023-05-02T23:31:35.601Z,72.16
2023-05-02T23:34:02.172Z,71.72
2023-05-02T23:36:28.635Z,71.38
2023-05-02T23:38:55.366Z,72.26
2023-05-02T23:41:22.362Z,72.33
2023-05-02T23:43:49.119Z,72.12
2023-05-02T23:46:15.912Z,72.30
2023-05-02T23:48:42.439Z,72.54
2023-05-02T23:51:08.911Z,72.49
2023-05-02T23:53:35.584Z,72.64
2023-05-02T23:56:02.070Z,72.72
2023-05-02T23:58:28.526Z,72.97
